createdAt,value
2023-04-14T00:01:38.796Z,7.10
2023-04-14T00:04:05.911Z,7.00
2023-04-14T00:06:32.940Z,7.00
2023-04-14T00:08:59.857Z,7.00
2023-04-14T00:11:27.380Z,7.00
2023-04-14T00:13:55.959Z,7.00
2023-04-14T00:16:22.692Z,7.10
2023-04-14T00:18:49.554Z,7.10
2023-04-14T00:21:16.243Z,7.10
2023-04-14T00:23:42.888Z,7.10
2023-04-14T00:26:09.501Z,7.10
2023-04-14T00:28:36.095Z,7.10
2023-04-14T00:31:02.892Z,7.10
2023-04-14T00:33:29.528Z,7.10
2023-04-14T00:35:57.051Z,7.10
2023-04-14T00:38:23.957Z,7.10
2023-04-14T00:40:50.720Z,7.10
2023-04-14T00:43:20.530Z,7.10
2023-04-14T00:45:48.930Z,7.10
2023-04-14T00:48:16.843Z,7.10
2023-04-14T00:50:44.167Z,7.10
2023-04-14T00:53:12.766Z,7.10
2023-04-14T00:55:40.280Z,7.10
2023-04-14T00:58:07.560Z,7.10
2023-04-14T01:00:35.360Z,7.20
2023-04-14T01:03:02.117Z,7.20
2023-04-14T01:05:29.051Z,7.20
2023-04-14T01:07:55.820Z,7.20
2023-04-14T01:10:24.242Z,7.20
2023-04-14T01:13:33.658Z,7.20
2023-04-14T01:16:05.357Z,7.20
2023-04-14T01:18:58.337Z,7.20
2023-04-14T01:21:31.626Z,7.10
2023-04-14T01:24:16.078Z,7.20
2023-04-14T01:26:44.289Z,7.20
2023-04-14T01:29:30.449Z,7.20
2023-04-14T01:32:17.895Z,7.10
2023-04-14T01:34:57.230Z,7.10
2023-04-14T01:37:34.350Z,7.10
2023-04-14T01:40:05.877Z,7.10
2023-04-14T01:42:36.609Z,7.20
2023-04-14T01:45:26.191Z,7.20
2023-04-14T01:47:54.295Z,7.20
2023-04-14T01:50:22.471Z,7.20
2023-04-14T01:52:54.144Z,7.20
2023-04-14T01:55:23.497Z,7.20
2023-04-14T01:57:52.189Z,7.20
2023-04-14T02:00:20.769Z,7.20
2023-04-14T02:02:50.314Z,7.20
2023-04-14T02:05:18.825Z,7.20
2023-04-14T02:07:48.052Z,7.20
2023-04-14T02:10:17.569Z,7.20
2023-04-14T02:12:45.659Z,7.20
2023-04-14T02:15:16.014Z,7.30
2023-04-14T02:17:44.301Z,7.30
2023-04-14T02:20:13.009Z,7.30
2023-04-14T02:22:39.796Z,7.30
2023-04-14T02:25:07.276Z,7.30
2023-04-14T02:27:39.565Z,7.30
2023-04-14T02:30:19.251Z,7.30
2023-04-14T02:32:52.976Z,7.30
2023-04-14T02:35:27.377Z,7.30
2023-04-14T02:38:05.493Z,7.30
2023-04-14T02:40:35.740Z,7.30
2023-04-14T02:43:19.191Z,7.30
2023-04-14T02:45:49.265Z,7.40
2023-04-14T02:48:17.284Z,7.40
2023-04-14T02:50:47.670Z,7.30
2023-04-14T02:53:18.700Z,7.30
2023-04-14T02:55:47.801Z,7.20
2023-04-14T02:58:15.873Z,7.20
2023-04-14T03:00:43.745Z,7.20
2023-04-14T03:03:14.216Z,7.30
2023-04-14T03:05:41.968Z,7.20
2023-04-14T03:08:11.354Z,7.30
2023-04-14T03:10:38.825Z,7.30
2023-04-14T03:13:07.491Z,7.30
2023-04-14T03:15:36.132Z,7.30
2023-04-14T03:18:03.818Z,7.30
2023-04-14T03:20:31.568Z,7.40
2023-04-14T03:23:05.141Z,7.40
2023-04-14T03:25:38.806Z,7.40
2023-04-14T03:28:09.623Z,7.30
2023-04-14T03:30:39.259Z,7.40
2023-04-14T03:33:09.544Z,7.30
2023-04-14T03:35:36.378Z,7.40
2023-04-14T03:38:08.597Z,7.40
2023-04-14T03:40:40.090Z,7.40
2023-04-14T03:43:09.987Z,7.40
2023-04-14T03:45:39.141Z,7.40
2023-04-14T03:48:10.691Z,7.40
2023-04-14T03:50:42.200Z,7.40
2023-04-14T03:53:14.251Z,7.40
2023-04-14T03:55:43.569Z,7.40
2023-04-14T03:58:12.321Z,7.40
2023-04-14T04:00:40.020Z,7.40
2023-04-14T04:03:06.805Z,7.40
2023-04-14T04:05:34.324Z,7.40
2023-04-14T04:08:03.191Z,7.40
2023-04-14T04:10:33.889Z,7.40
2023-04-14T04:13:03.085Z,7.40
2023-04-14T04:15:31.824Z,7.40
2023-04-14T04:18:00.688Z,7.40
2023-04-14T04:20:28.541Z,7.30
2023-04-14T04:22:57.862Z,7.40
2023-04-14T04:25:24.613Z,7.30
2023-04-14T04:27:51.267Z,7.40
2023-04-14T04:30:19.527Z,7.40
2023-04-14T04:32:46.285Z,7.40
2023-04-14T04:35:13.264Z,7.40
2023-04-14T04:37:42.249Z,7.40
2023-04-14T04:40:09.638Z,7.40
2023-04-14T04:42:42.005Z,7.40
2023-04-14T04:45:09.867Z,7.40
2023-04-14T04:47:36.630Z,7.40
2023-04-14T04:50:03.473Z,7.40
2023-04-14T04:52:30.213Z,7.50
2023-04-14T04:54:56.858Z,7.40
2023-04-14T04:57:23.547Z,7.50
2023-04-14T04:59:50.178Z,7.50
2023-04-14T05:02:16.831Z,7.50
2023-04-14T05:04:43.486Z,7.50
2023-04-14T05:07:10.287Z,7.50
2023-04-14T05:09:36.948Z,7.50
2023-04-14T05:12:03.912Z,7.50
2023-04-14T05:14:30.695Z,7.60
2023-04-14T05:16:57.343Z,7.60
2023-04-14T05:19:23.943Z,7.60
2023-04-14T05:21:50.749Z,7.60
2023-04-14T05:24:17.386Z,7.60
2023-04-14T05:27:01.637Z,7.70
2023-04-14T05:29:31.182Z,7.70
2023-04-14T05:31:57.890Z,7.70
2023-04-14T05:34:24.464Z,7.80
2023-04-14T05:36:51.637Z,7.80
2023-04-14T05:39:18.254Z,7.80
2023-04-14T05:41:45.008Z,7.80
2023-04-14T05:44:11.688Z,7.80
2023-04-14T05:46:38.365Z,7.80
2023-04-14T05:49:05.086Z,7.90
2023-04-14T05:51:32.483Z,7.90
2023-04-14T05:53:59.288Z,7.90
2023-04-14T05:56:26.647Z,7.90
2023-04-14T05:58:55.785Z,7.90
2023-04-14T06:01:22.398Z,7.90
2023-04-14T06:03:49.362Z,7.90
2023-04-14T06:06:16.238Z,8.00
2023-04-14T06:08:42.940Z,8.00
2023-04-14T06:11:09.551Z,8.00
2023-04-14T06:13:36.564Z,8.00
2023-04-14T06:16:03.818Z,8.00
2023-04-14T06:18:30.652Z,8.00
2023-04-14T06:20:57.302Z,8.10
2023-04-14T06:23:24.698Z,8.10
2023-04-14T06:25:52.322Z,8.10
2023-04-14T06:28:19.978Z,8.10
2023-04-14T06:30:46.615Z,8.10
2023-04-14T06:33:13.256Z,8.20
2023-04-14T06:35:40.122Z,8.20
2023-04-14T06:38:06.806Z,8.20
2023-04-14T06:40:33.426Z,8.20
2023-04-14T06:43:00.178Z,8.30
2023-04-14T06:45:27.089Z,8.30
2023-04-14T06:47:53.885Z,8.40
2023-04-14T06:50:20.664Z,8.40
2023-04-14T06:52:47.324Z,8.40
2023-04-14T06:55:14.102Z,8.40
2023-04-14T06:57:40.688Z,8.40
2023-04-14T07:00:09.442Z,8.40
2023-04-14T07:02:36.686Z,8.40
2023-04-14T07:05:03.696Z,8.40
2023-04-14T07:07:34.137Z,8.40
2023-04-14T07:10:00.809Z,8.40
2023-04-14T07:12:27.527Z,8.40
2023-04-14T07:14:54.288Z,8.40
2023-04-14T07:17:20.924Z,8.50
2023-04-14T07:19:47.564Z,8.50
2023-04-14T07:22:14.231Z,8.50
2023-04-14T07:24:41.160Z,8.40
2023-04-14T07:27:15.011Z,8.50
2023-04-14T07:29:42.461Z,8.40
2023-04-14T07:32:09.182Z,8.50
2023-04-14T07:34:35.959Z,8.50
2023-04-14T07:37:02.592Z,8.50
2023-04-14T07:39:29.503Z,8.50
2023-04-14T07:41:58.641Z,8.50
2023-04-14T07:44:25.912Z,8.60
2023-04-14T07:46:52.569Z,8.60
2023-04-14T07:49:19.289Z,8.60
2023-04-14T07:51:45.913Z,8.60
2023-04-14T07:54:12.596Z,8.60
2023-04-14T07:56:39.553Z,8.60
2023-04-14T07:59:06.239Z,8.60
2023-04-14T08:01:32.863Z,8.70
2023-04-14T08:03:59.644Z,8.60
2023-04-14T08:06:28.141Z,8.70
2023-04-14T08:08:54.813Z,8.70
2023-04-14T08:11:21.605Z,8.70
2023-04-14T08:13:49.915Z,8.70
2023-04-14T08:16:16.955Z,8.70
2023-04-14T08:18:43.759Z,8.70
2023-04-14T08:21:10.733Z,8.80
2023-04-14T08:23:37.853Z,8.80
2023-04-14T08:26:05.028Z,8.80
2023-04-14T08:28:31.661Z,8.70
2023-04-14T08:30:58.784Z,8.70
2023-04-14T08:33:25.424Z,8.70
2023-04-14T08:35:59.343Z,8.70
2023-04-14T08:38:27.934Z,8.70
2023-04-14T08:40:56.371Z,8.70
2023-04-14T08:43:23.400Z,8.70
2023-04-14T08:45:54.089Z,8.70
2023-04-14T08:48:22.475Z,8.70
2023-04-14T08:51:04.690Z,8.70
2023-04-14T08:53:31.932Z,8.70
2023-04-14T08:56:01.705Z,8.70
2023-04-14T08:58:29.081Z,8.70
2023-04-14T09:00:56.146Z,8.70
2023-04-14T09:03:24.053Z,8.70
2023-04-14T09:05:51.857Z,8.70
2023-04-14T09:08:20.119Z,8.60
2023-04-14T09:10:47.162Z,8.70
2023-04-14T09:13:16.654Z,8.70
2023-04-14T09:15:43.775Z,8.60
2023-04-14T09:18:12.122Z,8.60
2023-04-14T09:20:41.747Z,8.60
2023-04-14T09:23:10.432Z,8.60
2023-04-14T09:25:41.702Z,8.70
2023-04-14T09:28:08.672Z,8.60
2023-04-14T09:30:35.686Z,8.70
2023-04-14T09:33:07.017Z,8.70
2023-04-14T09:35:48.684Z,8.80
2023-04-14T09:38:16.709Z,8.80
2023-04-14T09:40:44.931Z,8.80
2023-04-14T09:43:25.906Z,8.80
2023-04-14T09:45:53.704Z,8.70
2023-04-14T09:48:21.405Z,8.70
2023-04-14T09:51:07.065Z,8.80
2023-04-14T09:53:38.568Z,8.70
2023-04-14T09:56:07.415Z,8.80
2023-04-14T09:58:36.178Z,8.80
2023-04-14T10:01:05.508Z,8.80
2023-04-14T10:03:38.206Z,8.80
2023-04-14T10:06:19.208Z,8.80
2023-04-14T10:08:51.562Z,8.80
2023-04-14T10:11:35.541Z,8.90
2023-04-14T10:14:04.804Z,9.00
2023-04-14T10:16:32.366Z,9.00
2023-04-14T10:19:00.073Z,9.00
2023-04-14T10:21:28.146Z,8.90
2023-04-14T10:23:57.108Z,8.90
2023-04-14T10:26:24.042Z,8.90
2023-04-14T10:28:53.257Z,8.80
2023-04-14T10:31:36.266Z,8.80
2023-04-14T10:34:14.796Z,8.80
2023-04-14T10:36:42.659Z,8.80
2023-04-14T10:39:11.733Z,8.80
2023-04-14T10:41:49.374Z,8.80
2023-04-14T10:44:26.854Z,8.80
2023-04-14T10:46:56.305Z,8.80
2023-04-14T10:49:33.750Z,8.70
2023-04-14T10:52:03.366Z,8.80
2023-04-14T10:54:50.797Z,8.80
2023-04-14T10:57:19.317Z,8.80
2023-04-14T10:59:47.413Z,8.80
2023-04-14T11:02:28.350Z,8.90
2023-04-14T11:05:08.913Z,8.90
2023-04-14T11:07:44.774Z,8.90
2023-04-14T11:10:17.361Z,9.00
2023-04-14T11:12:46.043Z,8.90
2023-04-14T11:15:13.689Z,9.00
2023-04-14T11:17:43.379Z,9.00
2023-04-14T11:20:18.197Z,9.00
2023-04-14T11:22:46.949Z,9.00
2023-04-14T11:25:15.729Z,9.10
2023-04-14T11:27:43.864Z,9.00
2023-04-14T11:30:18.685Z,9.00
2023-04-14T11:32:57.460Z,9.00
2023-04-14T11:35:26.063Z,9.00
2023-04-14T11:37:54.635Z,9.10
2023-04-14T11:40:22.344Z,9.00
2023-04-14T11:42:57.403Z,9.10
2023-04-14T11:45:29.287Z,9.10
2023-04-14T11:48:04.497Z,9.10
2023-04-14T11:50:32.963Z,9.10
2023-04-14T11:53:00.672Z,9.10
2023-04-14T11:55:29.048Z,9.10
2023-04-14T11:57:57.145Z,9.10
2023-04-14T12:00:24.504Z,9.10
2023-04-14T12:02:51.793Z,9.10
2023-04-14T12:05:34.450Z,9.10
2023-04-14T12:08:03.937Z,9.10
2023-04-14T12:10:31.600Z,9.10
2023-04-14T12:13:09.909Z,9.10
2023-04-14T12:15:41.450Z,9.00
2023-04-14T12:18:10.594Z,9.00
2023-04-14T12:20:46.937Z,9.00
2023-04-14T12:23:15.491Z,9.00
2023-04-14T12:25:42.133Z,9.10
2023-04-14T12:28:08.965Z,9.10
2023-04-14T12:30:37.276Z,9.10
2023-04-14T12:33:10.558Z,9.10
2023-04-14T12:35:37.728Z,9.10
2023-04-14T12:38:14.705Z,9.10
2023-04-14T12:40:47.635Z,9.10
2023-04-14T12:43:16.266Z,9.10
2023-04-14T12:45:48.654Z,9.00
2023-04-14T12:48:17.566Z,9.10
2023-04-14T12:50:44.837Z,9.10
2023-04-14T12:53:32.313Z,9.10
2023-04-14T12:56:22.190Z,9.00
2023-04-14T12:58:49.249Z,9.10
2023-04-14T13:01:18.361Z,9.10
2023-04-14T13:03:50.961Z,9.00
2023-04-14T13:06:22.917Z,9.10
2023-04-14T13:08:54.164Z,9.10
2023-04-14T13:11:23.355Z,9.10
2023-04-14T13:13:51.145Z,9.10
2023-04-14T13:16:18.932Z,9.10
2023-04-14T13:18:48.075Z,9.10
2023-04-14T13:21:15.904Z,9.10
2023-04-14T13:23:42.667Z,9.10
2023-04-14T13:26:09.625Z,9.10
2023-04-14T13:28:37.019Z,9.10
2023-04-14T13:31:03.785Z,9.10
2023-04-14T13:33:31.013Z,9.20
2023-04-14T13:35:57.697Z,9.20
2023-04-14T13:38:24.521Z,9.20
2023-04-14T13:40:51.156Z,9.30
2023-04-14T13:43:19.098Z,9.30
2023-04-14T13:45:47.197Z,9.30
2023-04-14T13:48:14.524Z,9.20
2023-04-14T13:50:41.516Z,9.20
2023-04-14T13:53:08.148Z,9.20
2023-04-14T13:55:36.159Z,9.10
2023-04-14T13:58:03.117Z,9.20
2023-04-14T14:00:29.792Z,9.20
2023-04-14T14:02:56.892Z,9.20
2023-04-14T14:05:23.821Z,9.30
2023-04-14T14:07:50.493Z,9.30
2023-04-14T14:10:17.286Z,9.30
2023-04-14T14:12:43.925Z,9.20
2023-04-14T14:15:11.392Z,9.20
2023-04-14T14:17:38.111Z,9.10
2023-04-14T14:20:05.395Z,9.10
2023-04-14T14:22:32.161Z,9.20
2023-04-14T14:25:15.057Z,9.20
2023-04-14T14:27:44.909Z,9.10
2023-04-14T14:30:12.107Z,9.10
2023-04-14T14:32:38.801Z,9.10
2023-04-14T14:35:05.964Z,9.10
2023-04-14T14:37:32.680Z,9.10
2023-04-14T14:39:59.280Z,9.00
2023-04-14T14:42:27.075Z,9.00
2023-04-14T14:44:54.266Z,9.00
2023-04-14T14:47:21.338Z,9.00
2023-04-14T14:49:58.926Z,8.90
2023-04-14T14:52:31.456Z,9.00
2023-04-14T14:54:58.075Z,9.00
2023-04-14T14:57:25.844Z,9.00
2023-04-14T14:59:52.862Z,9.00
2023-04-14T15:02:20.964Z,9.00
2023-04-14T15:04:48.140Z,8.90
2023-04-14T15:07:15.252Z,8.90
2023-04-14T15:09:41.963Z,8.90
2023-04-14T15:12:11.756Z,9.00
2023-04-14T15:14:38.352Z,9.00
2023-04-14T15:17:05.030Z,9.00
2023-04-14T15:19:31.928Z,9.00
2023-04-14T15:21:58.725Z,9.00
2023-04-14T15:24:25.418Z,9.00
2023-04-14T15:26:52.131Z,9.00
2023-04-14T15:29:19.558Z,9.00
2023-04-14T15:31:46.734Z,9.00
2023-04-14T15:34:13.544Z,9.00
2023-04-14T15:36:40.265Z,9.00
2023-04-14T15:39:07.173Z,9.00
2023-04-14T15:41:35.898Z,9.00
2023-04-14T15:44:02.887Z,9.00
2023-04-14T15:46:29.839Z,9.00
2023-04-14T15:48:56.732Z,9.00
2023-04-14T15:51:23.354Z,9.00
2023-04-14T15:53:51.332Z,9.00
2023-04-14T15:56:17.994Z,9.00
2023-04-14T15:58:44.638Z,9.00
2023-04-14T16:01:11.356Z,9.10
2023-04-14T16:03:38.574Z,9.10
2023-04-14T16:06:07.191Z,9.10
2023-04-14T16:08:34.105Z,9.10
2023-04-14T16:11:00.812Z,9.10
2023-04-14T16:13:27.466Z,9.10
2023-04-14T16:15:55.210Z,9.10
2023-04-14T16:18:21.817Z,9.10
2023-04-14T16:20:50.223Z,9.10
2023-04-14T16:23:17.132Z,9.20
2023-04-14T16:25:48.483Z,9.10
2023-04-14T16:28:16.306Z,9.10
2023-04-14T16:30:43.206Z,9.10
2023-04-14T16:33:09.873Z,9.10
2023-04-14T16:35:36.648Z,9.10
2023-04-14T16:38:03.476Z,9.10
2023-04-14T16:40:30.095Z,9.10
2023-04-14T16:42:56.837Z,9.20
2023-04-14T16:45:23.439Z,9.10
2023-04-14T16:47:50.618Z,9.10
2023-04-14T16:50:17.426Z,9.10
2023-04-14T16:52:44.073Z,9.10
2023-04-14T16:55:11.150Z,9.10
2023-04-14T16:57:37.767Z,9.10
2023-04-14T17:00:05.025Z,9.10
2023-04-14T17:02:31.847Z,9.10
2023-04-14T17:04:58.695Z,9.10
2023-04-14T17:07:25.458Z,9.10
2023-04-14T17:09:52.200Z,9.10
2023-04-14T17:12:18.919Z,9.00
2023-04-14T17:14:45.741Z,9.10
2023-04-14T17:17:12.912Z,9.10
2023-04-14T17:19:39.543Z,9.10
2023-04-14T17:22:06.241Z,9.00
2023-04-14T17:24:33.586Z,9.00
2023-04-14T17:27:01.154Z,9.00
2023-04-14T17:29:28.815Z,9.10
2023-04-14T17:31:55.731Z,9.00
2023-04-14T17:34:22.842Z,9.00
2023-04-14T17:36:50.072Z,9.00
2023-04-14T17:39:20.447Z,9.00
2023-04-14T17:41:48.109Z,9.00
2023-04-14T17:44:14.761Z,9.00
2023-04-14T17:46:41.602Z,9.00
2023-04-14T17:49:08.279Z,9.00
2023-04-14T17:51:35.224Z,9.00
2023-04-14T17:54:03.453Z,9.00
2023-04-14T17:56:31.346Z,9.00
2023-04-14T17:58:58.536Z,9.00
2023-04-14T18:01:26.227Z,9.00
2023-04-14T18:03:53.160Z,8.90
2023-04-14T18:06:20.166Z,9.00
2023-04-14T18:08:46.940Z,8.90
2023-04-14T18:11:13.572Z,8.90
2023-04-14T18:13:40.157Z,8.90
2023-04-14T18:16:07.787Z,8.90
2023-04-14T18:18:35.263Z,8.90
2023-04-14T18:21:01.876Z,8.90
2023-04-14T18:23:28.674Z,8.90
2023-04-14T18:28:29.688Z,8.90
2023-04-14T18:30:58.286Z,8.80
2023-04-14T18:33:26.297Z,8.80
2023-04-14T18:35:55.278Z,8.90
2023-04-14T18:38:22.208Z,8.80
2023-04-14T18:40:49.323Z,8.80
2023-04-14T18:43:17.169Z,8.80
2023-04-14T18:45:47.990Z,8.80
2023-04-14T18:48:15.813Z,8.80
2023-04-14T18:50:43.176Z,8.80
2023-04-14T18:53:10.603Z,8.70
2023-04-14T18:55:45.636Z,8.80
2023-04-14T18:58:13.452Z,8.70
2023-04-14T19:00:40.679Z,8.70
2023-04-14T19:03:08.565Z,8.70
2023-04-14T19:05:37.061Z,8.60
2023-04-14T19:08:07.476Z,8.60
2023-04-14T19:10:36.250Z,8.60
2023-04-14T19:13:02.946Z,8.70
2023-04-14T19:15:29.635Z,8.60
2023-04-14T19:17:56.289Z,8.60
2023-04-14T19:20:24.221Z,8.60
2023-04-14T19:22:51.146Z,8.60
2023-04-14T19:25:18.400Z,8.60
2023-04-14T19:27:45.341Z,8.60
2023-04-14T19:30:12.642Z,8.60
2023-04-14T19:32:39.736Z,8.60
2023-04-14T19:35:07.715Z,8.60
2023-04-14T19:37:35.214Z,8.60
2023-04-14T19:40:03.676Z,8.60
2023-04-14T19:42:30.284Z,8.60
2023-04-14T19:44:57.391Z,8.60
2023-04-14T19:47:24.325Z,8.60
2023-04-14T19:49:51.871Z,8.60
2023-04-14T19:52:18.971Z,8.70
2023-04-14T19:54:45.869Z,8.70
2023-04-14T19:57:12.504Z,8.70
2023-04-14T19:59:39.949Z,8.70
2023-04-14T20:02:10.673Z,8.60
2023-04-14T20:04:37.848Z,8.60
2023-04-14T20:07:05.086Z,8.70
2023-04-14T20:09:31.957Z,8.60
2023-04-14T20:12:00.728Z,8.60
2023-04-14T20:14:28.041Z,8.60
2023-04-14T20:16:54.800Z,8.60
2023-04-14T20:19:22.554Z,8.60
2023-04-14T20:21:49.258Z,8.60
2023-04-14T20:24:16.027Z,8.60
2023-04-14T20:26:43.717Z,8.60
2023-04-14T20:29:10.713Z,8.70
2023-04-14T20:31:38.981Z,8.60
2023-04-14T20:34:06.238Z,8.60
2023-04-14T20:36:35.890Z,8.60
2023-04-14T20:39:07.165Z,8.60
2023-04-14T20:41:34.839Z,8.60
2023-04-14T20:44:01.718Z,8.60
2023-04-14T20:46:28.942Z,8.60
2023-04-14T20:48:56.639Z,8.60
2023-04-14T20:51:23.667Z,8.60
2023-04-14T20:53:50.740Z,8.60
2023-04-14T20:56:17.766Z,8.60
2023-04-14T20:58:45.567Z,8.60
2023-04-14T21:01:12.515Z,8.60
2023-04-14T21:03:39.549Z,8.60
2023-04-14T21:06:06.705Z,8.60
2023-04-14T21:08:33.454Z,8.60
2023-04-14T21:11:14.921Z,8.60
2023-04-14T21:14:57.824Z,8.60
2023-04-14T21:16:30.992Z,8.60
2023-04-14T21:18:57.736Z,8.60
2023-04-14T21:21:24.486Z,8.50
2023-04-14T21:23:51.282Z,8.60
2023-04-14T21:26:18.999Z,8.50
2023-04-14T21:28:45.691Z,8.50
2023-04-14T21:31:12.548Z,8.50
2023-04-14T21:33:41.486Z,8.50
2023-04-14T21:36:09.854Z,8.50
2023-04-14T21:38:37.828Z,8.50
2023-04-14T21:41:04.772Z,8.50
2023-04-14T21:43:32.556Z,8.50
2023-04-14T21:45:59.372Z,8.50
2023-04-14T21:48:26.243Z,8.50
2023-04-14T21:50:52.894Z,8.50
2023-04-14T21:53:20.677Z,8.50
2023-04-14T21:55:47.599Z,8.50
2023-04-14T21:58:34.185Z,8.50
2023-04-14T22:01:01.586Z,8.60
2023-04-14T22:03:28.434Z,8.50
2023-04-14T22:05:55.396Z,8.50
2023-04-14T22:08:23.652Z,8.50
2023-04-14T22:10:50.416Z,8.50
2023-04-14T22:13:17.042Z,8.50
2023-04-14T22:15:43.778Z,8.50
2023-04-14T22:18:10.783Z,8.50
2023-04-14T22:20:37.597Z,8.50
2023-04-14T22:23:04.272Z,8.50
2023-04-14T22:25:31.132Z,8.50
2023-04-14T22:27:57.732Z,8.50
2023-04-14T22:30:24.455Z,8.50
2023-04-14T22:32:51.302Z,8.50
2023-04-14T22:35:17.946Z,8.40
2023-04-14T22:37:44.592Z,8.40
2023-04-14T22:40:11.323Z,8.40
2023-04-14T22:42:38.055Z,8.40
2023-04-14T22:45:05.714Z,8.50
2023-04-14T22:47:32.643Z,8.50
2023-04-14T22:50:00.106Z,8.50
2023-04-14T22:52:27.885Z,8.50
2023-04-14T22:54:54.701Z,8.50
2023-04-14T22:57:21.527Z,8.50
2023-04-14T22:59:48.263Z,8.50
2023-04-14T23:02:15.067Z,8.50
2023-04-14T23:04:42.303Z,8.50
2023-04-14T23:07:09.345Z,8.50
2023-04-14T23:09:35.949Z,8.40
2023-04-14T23:12:02.840Z,8.50
2023-04-14T23:14:29.574Z,8.40
2023-04-14T23:16:56.701Z,8.40
2023-04-14T23:19:23.504Z,8.50
2023-04-14T23:21:51.106Z,8.40
2023-04-14T23:24:18.123Z,8.40
2023-04-14T23:26:44.876Z,8.40
2023-04-14T23:29:11.839Z,8.40
2023-04-14T23:31:38.621Z,8.40
2023-04-14T23:34:09.174Z,8.40
2023-04-14T23:36:37.140Z,8.40
2023-04-14T23:39:04.187Z,8.40
2023-04-14T23:41:30.998Z,8.40
2023-04-14T23:43:57.728Z,8.40
2023-04-14T23:46:24.770Z,8.40
2023-04-14T23:48:51.466Z,8.40
2023-04-14T23:51:22.517Z,8.40
2023-04-14T23:53:49.638Z,8.40
2023-04-14T23:56:16.571Z,8.40
2023-04-14T23:58:43.801Z,8.40
